createdAt,value
2023-04-22T00:01:06.802Z,55.31
2023-04-22T00:03:35.364Z,55.60
2023-04-22T00:06:02.540Z,55.44
2023-04-22T00:08:29.262Z,55.23
2023-04-22T00:10:56.751Z,55.63
2023-04-22T00:13:23.501Z,55.67
2023-04-22T00:15:52.722Z,55.40
2023-04-22T00:18:19.971Z,55.56
2023-04-22T00:20:48.443Z,55.52
2023-04-22T00:23:15.719Z,55.67
2023-04-22T00:25:42.595Z,55.25
2023-04-22T00:28:09.408Z,55.38
2023-04-22T00:30:36.747Z,55.93
2023-04-22T00:33:04.613Z,55.79
2023-04-22T00:35:31.606Z,56.14
2023-04-22T00:37:58.645Z,56.03
2023-04-22T00:40:25.388Z,56.48
2023-04-22T00:42:52.317Z,56.58
2023-04-22T00:45:21.956Z,56.76
2023-04-22T00:47:49.190Z,56.95
2023-04-22T00:50:16.476Z,56.92
2023-04-22T00:52:43.284Z,56.80
2023-04-22T00:55:11.244Z,57.16
2023-04-22T00:57:38.296Z,57.16
2023-04-22T01:00:06.718Z,56.61
2023-04-22T01:02:33.837Z,57.00
2023-04-22T01:05:01.281Z,56.92
2023-04-22T01:07:28.626Z,57.22
2023-04-22T01:09:55.628Z,56.38
2023-04-22T01:12:22.301Z,56.70
2023-04-22T01:14:49.561Z,57.18
2023-04-22T01:17:16.989Z,57.37
2023-04-22T01:19:44.396Z,56.64
2023-04-22T01:22:13.429Z,57.13
2023-04-22T01:24:40.684Z,57.05
2023-04-22T01:27:08.322Z,56.94
2023-04-22T01:29:38.077Z,57.24
2023-04-22T01:32:05.942Z,57.18
2023-04-22T01:34:33.192Z,57.57
2023-04-22T01:36:59.932Z,57.35
2023-04-22T01:39:27.002Z,57.49
2023-04-22T01:41:53.870Z,57.43
2023-04-22T01:44:20.646Z,57.32
2023-04-22T01:46:47.374Z,57.61
2023-04-22T01:49:14.113Z,57.79
2023-04-22T01:51:43.201Z,57.91
2023-04-22T01:54:10.301Z,57.73
2023-04-22T01:56:38.844Z,57.69
2023-04-22T01:59:07.643Z,57.97
2023-04-22T02:01:36.455Z,57.93
2023-04-22T02:04:06.400Z,57.81
2023-04-22T02:06:33.728Z,58.04
2023-04-22T02:09:04.782Z,58.39
2023-04-22T02:11:31.492Z,58.41
2023-04-22T02:13:58.534Z,57.90
2023-04-22T02:16:25.358Z,58.58
2023-04-22T02:18:52.150Z,58.40
2023-04-22T02:21:20.848Z,58.39
2023-04-22T02:23:47.727Z,58.16
2023-04-22T02:26:14.467Z,58.48
2023-04-22T02:28:42.812Z,58.47
2023-04-22T02:31:09.882Z,58.60
2023-04-22T02:33:39.252Z,58.39
2023-04-22T02:36:10.104Z,58.71
2023-04-22T02:38:38.222Z,58.41
2023-04-22T02:41:05.272Z,58.71
2023-04-22T02:43:32.391Z,58.97
2023-04-22T02:45:59.155Z,59.30
2023-04-22T02:48:26.178Z,59.13
2023-04-22T02:50:55.813Z,59.41
2023-04-22T02:53:22.724Z,59.68
2023-04-22T02:55:49.550Z,59.58
2023-04-22T02:58:17.719Z,59.64
2023-04-22T03:00:44.869Z,59.95
2023-04-22T03:03:12.073Z,59.98
2023-04-22T03:05:39.478Z,60.35
2023-04-22T03:08:06.274Z,60.01
2023-04-22T03:10:33.324Z,59.89
2023-04-22T03:13:02.336Z,60.54
2023-04-22T03:15:29.879Z,60.06
2023-04-22T03:17:56.873Z,60.34
2023-04-22T03:20:24.250Z,59.99
2023-04-22T03:22:53.859Z,60.52
2023-04-22T03:25:23.117Z,60.32
2023-04-22T03:27:53.271Z,60.96
2023-04-22T03:30:20.272Z,61.05
2023-04-22T03:32:47.793Z,61.15
2023-04-22T03:35:21.696Z,60.84
2023-04-22T03:37:50.891Z,61.37
2023-04-22T03:40:22.760Z,61.43
2023-04-22T03:42:49.778Z,61.45
2023-04-22T03:45:19.142Z,61.42
2023-04-22T03:47:53.341Z,61.82
2023-04-22T03:50:26.233Z,61.86
2023-04-22T03:52:54.361Z,62.38
2023-04-22T03:55:21.790Z,62.08
2023-04-22T03:57:51.349Z,62.41
2023-04-22T04:00:18.299Z,62.77
2023-04-22T04:02:51.937Z,62.93
2023-04-22T04:05:24.297Z,62.64
2023-04-22T04:07:51.279Z,62.77
2023-04-22T04:10:18.539Z,63.04
2023-04-22T04:12:45.921Z,63.09
2023-04-22T04:15:12.884Z,63.00
2023-04-22T04:17:40.145Z,62.71
2023-04-22T04:20:08.990Z,62.63
2023-04-22T04:22:36.678Z,62.38
2023-04-22T04:25:07.018Z,62.74
2023-04-22T04:27:39.531Z,62.96
2023-04-22T04:30:07.788Z,62.46
2023-04-22T04:32:43.254Z,62.54
2023-04-22T04:35:16.457Z,62.70
2023-04-22T04:37:47.702Z,62.83
2023-04-22T04:40:15.211Z,62.58
2023-04-22T04:42:48.209Z,62.31
2023-04-22T04:45:22.695Z,62.43
2023-04-22T04:47:50.904Z,62.38
2023-04-22T04:50:23.150Z,62.38
2023-04-22T04:52:50.841Z,61.59
2023-04-22T04:55:23.684Z,62.00
2023-04-22T04:57:51.361Z,62.21
2023-04-22T05:00:18.608Z,61.94
2023-04-22T05:02:46.470Z,61.76
2023-04-22T05:05:13.922Z,61.35
2023-04-22T05:07:44.270Z,61.43
2023-04-22T05:10:14.362Z,60.96
2023-04-22T05:12:41.740Z,60.85
2023-04-22T05:15:13.896Z,60.72
2023-04-22T05:17:42.230Z,60.04
2023-04-22T05:20:15.676Z,60.65
2023-04-22T05:22:43.612Z,60.10
2023-04-22T05:25:11.041Z,60.02
2023-04-22T05:27:42.735Z,60.13
2023-04-22T05:30:12.350Z,60.34
2023-04-22T05:32:40.875Z,60.23
2023-04-22T05:35:11.568Z,60.15
2023-04-22T05:37:42.749Z,60.31
2023-04-22T05:40:11.012Z,60.56
2023-04-22T05:42:38.355Z,60.87
2023-04-22T05:45:08.413Z,60.62
2023-04-22T05:47:41.160Z,60.70
2023-04-22T05:50:09.215Z,60.45
2023-04-22T05:52:49.793Z,60.92
2023-04-22T05:55:19.192Z,61.13
2023-04-22T05:57:46.161Z,61.05
2023-04-22T06:00:26.941Z,60.10
2023-04-22T06:03:12.548Z,60.59
2023-04-22T06:05:41.008Z,60.48
2023-04-22T06:08:08.144Z,60.19
2023-04-22T06:10:36.779Z,60.40
2023-04-22T06:13:03.792Z,59.78
2023-04-22T06:15:31.959Z,59.57
2023-04-22T06:17:59.649Z,59.12
2023-04-22T06:20:26.864Z,58.99
2023-04-22T06:22:54.578Z,57.65
2023-04-22T06:25:22.767Z,53.28
2023-04-22T06:27:49.965Z,52.09
2023-04-22T06:30:17.430Z,50.22
2023-04-22T06:32:44.471Z,49.33
2023-04-22T06:35:11.354Z,49.39
2023-04-22T06:37:38.281Z,49.70
2023-04-22T06:40:08.234Z,50.33
2023-04-22T06:42:53.451Z,49.94
2023-04-22T06:45:46.736Z,49.79
2023-04-22T06:48:23.334Z,50.54
2023-04-22T06:51:13.231Z,50.70
2023-04-22T06:53:40.190Z,48.03
2023-04-22T06:56:08.463Z,43.25
2023-04-22T06:58:35.605Z,40.43
2023-04-22T07:01:02.616Z,39.55
2023-04-22T07:03:31.908Z,39.07
2023-04-22T07:06:06.757Z,38.71
2023-04-22T07:08:34.232Z,38.76
2023-04-22T07:11:02.176Z,39.43
2023-04-22T07:13:37.930Z,38.31
2023-04-22T07:16:04.981Z,37.77
2023-04-22T07:18:33.025Z,38.86
2023-04-22T07:20:59.954Z,39.79
2023-04-22T07:23:26.823Z,40.83
2023-04-22T07:25:53.861Z,42.07
2023-04-22T07:28:20.894Z,42.88
2023-04-22T07:30:48.897Z,43.48
2023-04-22T07:33:16.150Z,43.70
2023-04-22T07:35:43.002Z,44.50
2023-04-22T07:38:10.677Z,44.95
2023-04-22T07:40:39.003Z,45.60
2023-04-22T07:43:06.499Z,45.89
2023-04-22T07:45:33.684Z,45.94
2023-04-22T07:48:00.749Z,46.43
2023-04-22T07:50:28.661Z,46.24
2023-04-22T07:52:55.774Z,46.52
2023-04-22T07:55:24.021Z,46.64
2023-04-22T07:57:50.720Z,46.61
2023-04-22T08:00:17.810Z,46.25
2023-04-22T08:02:44.779Z,45.68
2023-04-22T08:05:11.844Z,45.39
2023-04-22T08:07:39.801Z,44.78
2023-04-22T08:10:07.293Z,44.07
2023-04-22T08:12:34.145Z,43.83
2023-04-22T08:15:02.389Z,42.79
2023-04-22T08:17:29.360Z,42.77
2023-04-22T08:19:56.094Z,42.73
2023-04-22T08:22:23.999Z,41.04
2023-04-22T08:24:51.005Z,39.95
2023-04-22T08:27:19.445Z,39.47
2023-04-22T08:29:46.253Z,37.67
2023-04-22T08:32:13.202Z,35.84
2023-04-22T08:34:40.400Z,33.41
2023-04-22T08:37:08.179Z,31.41
2023-04-22T08:39:35.072Z,31.62
2023-04-22T08:42:02.393Z,30.72
2023-04-22T08:44:30.553Z,29.58
2023-04-22T08:46:59.527Z,29.30
2023-04-22T08:49:28.718Z,26.75
2023-04-22T08:51:56.664Z,24.89
2023-04-22T08:54:24.465Z,22.31
2023-04-22T08:56:52.098Z,21.08
2023-04-22T08:59:20.618Z,20.85
2023-04-22T09:01:52.171Z,19.24
2023-04-22T09:04:19.672Z,18.63
2023-04-22T09:06:47.149Z,19.16
2023-04-22T09:09:14.825Z,20.42
2023-04-22T09:11:48.256Z,20.37
2023-04-22T09:14:20.015Z,20.75
2023-04-22T09:16:48.625Z,21.88
2023-04-22T09:19:23.099Z,23.15
2023-04-22T09:21:54.297Z,22.99
2023-04-22T09:24:21.705Z,22.93
2023-04-22T09:26:49.868Z,22.54
2023-04-22T09:29:18.158Z,23.24
2023-04-22T09:31:50.249Z,21.97
2023-04-22T09:34:17.501Z,20.71
2023-04-22T09:36:46.896Z,18.93
2023-04-22T09:39:14.935Z,18.32
2023-04-22T09:41:45.912Z,15.63
2023-04-22T09:44:20.483Z,15.02
2023-04-22T09:46:51.347Z,15.31
2023-04-22T09:49:21.351Z,16.03
2023-04-22T09:51:49.829Z,17.21
2023-04-22T09:54:16.777Z,17.57
2023-04-22T09:56:53.888Z,17.22
2023-04-22T09:59:28.737Z,17.75
2023-04-22T10:02:04.290Z,17.13
2023-04-22T10:04:31.307Z,14.51
2023-04-22T10:06:58.381Z,13.98
2023-04-22T10:09:26.115Z,12.60
2023-04-22T10:11:55.230Z,12.54
2023-04-22T10:14:22.123Z,12.46
2023-04-22T10:16:52.177Z,10.98
2023-04-22T10:19:23.896Z,9.43
2023-04-22T10:21:59.194Z,8.88
2023-04-22T10:24:28.393Z,8.63
2023-04-22T10:26:57.901Z,8.93
2023-04-22T10:29:26.938Z,8.02
2023-04-22T10:32:03.738Z,8.04
2023-04-22T10:34:34.328Z,8.52
2023-04-22T10:37:02.242Z,9.94
2023-04-22T10:39:29.856Z,12.11
2023-04-22T10:42:09.956Z,13.07
2023-04-22T10:44:51.043Z,13.28
2023-04-22T10:47:33.002Z,14.28
2023-04-22T10:50:09.896Z,13.11
2023-04-22T10:52:37.208Z,10.80
2023-04-22T10:55:04.394Z,9.20
2023-04-22T10:57:41.726Z,7.80
2023-04-22T11:00:23.744Z,7.14
2023-04-22T11:03:05.784Z,6.88
2023-04-22T11:05:34.283Z,5.94
2023-04-22T11:08:14.538Z,6.70
2023-04-22T11:10:47.549Z,6.65
2023-04-22T11:13:17.110Z,6.59
2023-04-22T11:15:54.265Z,6.87
2023-04-22T11:18:27.153Z,6.64
2023-04-22T11:20:54.700Z,6.68
2023-04-22T11:23:28.772Z,6.50
2023-04-22T11:26:00.430Z,5.99
2023-04-22T11:28:27.538Z,6.12
2023-04-22T11:31:04.324Z,6.79
2023-04-22T11:33:34.754Z,7.51
2023-04-22T11:36:01.919Z,7.00
2023-04-22T11:38:29.027Z,6.43
2023-04-22T11:40:58.520Z,5.92
2023-04-22T11:43:26.144Z,6.21
2023-04-22T11:45:56.371Z,6.48
2023-04-22T11:48:24.652Z,7.38
2023-04-22T11:51:12.902Z,8.70
2023-04-22T11:53:49.634Z,8.80
2023-04-22T11:56:16.489Z,10.32
2023-04-22T11:58:44.343Z,8.85
2023-04-22T12:01:14.237Z,8.83
2023-04-22T12:03:45.450Z,9.64
2023-04-22T12:06:12.510Z,11.01
2023-04-22T12:08:44.385Z,11.95
2023-04-22T12:11:12.577Z,12.80
2023-04-22T12:13:41.651Z,13.91
2023-04-22T12:16:15.787Z,14.47
2023-04-22T12:18:53.943Z,15.13
2023-04-22T12:21:23.853Z,15.63
2023-04-22T12:23:56.141Z,16.60
2023-04-22T12:26:26.374Z,16.76
2023-04-22T12:28:55.203Z,17.31
2023-04-22T12:31:24.953Z,17.74
2023-04-22T12:33:56.543Z,19.21
2023-04-22T12:36:23.906Z,19.40
2023-04-22T12:38:52.443Z,20.13
2023-04-22T12:41:25.039Z,20.55
2023-04-22T12:43:55.832Z,21.07
2023-04-22T12:46:23.160Z,21.17
2023-04-22T12:48:56.905Z,22.00
2023-04-22T12:51:24.141Z,22.45
2023-04-22T12:53:51.313Z,22.52
2023-04-22T12:56:21.319Z,22.33
2023-04-22T12:58:48.497Z,22.46
2023-04-22T13:01:18.223Z,22.81
2023-04-22T13:03:47.003Z,23.21
2023-04-22T13:06:14.016Z,23.38
2023-04-22T13:08:51.938Z,23.34
2023-04-22T13:11:18.874Z,24.17
2023-04-22T13:13:58.187Z,23.73
2023-04-22T13:16:25.205Z,24.17
2023-04-22T13:18:53.104Z,24.59
2023-04-22T13:21:20.491Z,24.05
2023-04-22T13:23:51.495Z,24.64
2023-04-22T13:26:19.116Z,24.23
2023-04-22T13:28:45.963Z,24.71
2023-04-22T13:31:13.027Z,25.10
2023-04-22T13:33:40.840Z,24.87
2023-04-22T13:36:08.325Z,25.47
2023-04-22T13:38:35.502Z,25.30
2023-04-22T13:41:03.438Z,25.96
2023-04-22T13:43:31.578Z,26.06
2023-04-22T13:45:59.985Z,25.83
2023-04-22T13:48:27.680Z,25.66
2023-04-22T13:50:54.712Z,25.54
2023-04-22T13:53:21.706Z,25.38
2023-04-22T13:55:48.972Z,25.19
2023-04-22T13:58:16.875Z,24.98
2023-04-22T14:00:44.053Z,24.66
2023-04-22T14:03:12.949Z,24.49
2023-04-22T14:05:41.088Z,24.18
2023-04-22T14:08:07.949Z,23.88
2023-04-22T14:10:35.197Z,23.60
2023-04-22T14:13:02.451Z,23.43
2023-04-22T14:15:29.358Z,23.75
2023-04-22T14:17:56.298Z,24.33
2023-04-22T14:20:25.257Z,24.85
2023-04-22T14:22:52.274Z,24.70
2023-04-22T14:25:21.802Z,24.69
2023-04-22T14:27:49.945Z,24.49
2023-04-22T14:30:17.104Z,25.18
2023-04-22T14:32:44.576Z,24.80
2023-04-22T14:35:12.100Z,25.08
2023-04-22T14:37:46.979Z,25.45
2023-04-22T14:40:23.340Z,24.63
2023-04-22T14:42:51.161Z,24.77
2023-04-22T14:45:21.098Z,25.13
2023-04-22T14:47:48.734Z,24.99
2023-04-22T14:50:18.810Z,25.02
2023-04-22T14:52:46.825Z,24.91
2023-04-22T14:55:23.292Z,24.81
2023-04-22T14:57:54.403Z,24.65
2023-04-22T15:00:21.537Z,24.46
2023-04-22T15:02:50.221Z,24.21
2023-04-22T15:05:18.221Z,24.50
2023-04-22T15:07:45.366Z,24.33
2023-04-22T15:10:12.495Z,23.42
2023-04-22T15:12:43.220Z,23.62
2023-04-22T15:15:13.468Z,23.56
2023-04-22T15:17:41.345Z,24.07
2023-04-22T15:20:09.597Z,24.31
2023-04-22T15:22:37.067Z,24.27
2023-04-22T15:25:04.731Z,24.05
2023-04-22T15:27:34.804Z,24.70
2023-04-22T15:30:04.364Z,24.92
2023-04-22T15:32:31.701Z,24.37
2023-04-22T15:34:58.875Z,24.66
2023-04-22T15:37:25.962Z,24.66
2023-04-22T15:39:52.682Z,24.44
2023-04-22T15:42:19.552Z,24.53
2023-04-22T15:44:46.439Z,24.57
2023-04-22T15:47:13.597Z,25.04
2023-04-22T15:49:40.896Z,24.07
2023-04-22T15:52:08.501Z,24.68
2023-04-22T15:54:38.787Z,24.56
2023-04-22T15:57:09.454Z,25.10
2023-04-22T15:59:40.558Z,25.02
2023-04-22T16:02:09.377Z,25.50
2023-04-22T16:04:36.530Z,24.86
2023-04-22T16:07:06.137Z,24.67
2023-04-22T16:09:33.273Z,25.14
2023-04-22T16:12:00.169Z,25.09
2023-04-22T16:14:27.015Z,25.77
2023-04-22T16:16:53.814Z,25.57
2023-04-22T16:19:20.963Z,25.85
2023-04-22T16:21:48.832Z,26.02
2023-04-22T16:24:15.777Z,25.98
2023-04-22T16:26:43.122Z,25.85
2023-04-22T16:29:10.063Z,26.25
2023-04-22T16:31:38.665Z,26.09
2023-04-22T16:34:05.679Z,26.38
2023-04-22T16:36:32.762Z,26.15
2023-04-22T16:39:03.941Z,26.63
2023-04-22T16:41:31.311Z,26.85
2023-04-22T16:44:01.178Z,27.00
2023-04-22T16:46:28.009Z,27.19
2023-04-22T16:48:55.180Z,27.28
2023-04-22T16:51:22.141Z,27.37
2023-04-22T16:53:49.163Z,27.62
2023-04-22T16:56:16.108Z,27.81
2023-04-22T16:58:43.089Z,27.70
2023-04-22T17:01:10.150Z,27.70
2023-04-22T17:03:37.857Z,28.03
2023-04-22T17:06:04.761Z,27.62
2023-04-22T17:08:31.497Z,27.57
2023-04-22T17:10:58.444Z,27.81
2023-04-22T17:13:25.388Z,28.14
2023-04-22T17:15:52.433Z,28.40
2023-04-22T17:18:19.178Z,28.34
2023-04-22T17:20:46.279Z,28.36
2023-04-22T17:23:12.962Z,28.28
2023-04-22T17:25:39.744Z,28.56
2023-04-22T17:28:06.590Z,28.41
2023-04-22T17:30:33.731Z,28.53
2023-04-22T17:33:01.145Z,28.89
2023-04-22T17:35:28.821Z,28.99
2023-04-22T17:37:57.791Z,28.71
2023-04-22T17:40:25.364Z,29.00
2023-04-22T17:42:52.519Z,29.44
2023-04-22T17:45:19.303Z,29.31
2023-04-22T17:47:48.479Z,29.82
2023-04-22T17:50:15.513Z,29.91
2023-04-22T17:52:43.954Z,30.23
2023-04-22T17:55:11.034Z,30.40
2023-04-22T17:57:37.808Z,30.71
2023-04-22T18:00:06.208Z,31.31
2023-04-22T18:02:34.501Z,31.50
2023-04-22T18:05:01.340Z,31.96
2023-04-22T18:07:27.990Z,32.06
2023-04-22T18:09:54.841Z,32.71
2023-04-22T18:12:24.153Z,32.97
2023-04-22T18:14:50.777Z,33.11
2023-04-22T18:17:20.130Z,33.77
2023-04-22T18:19:50.902Z,33.71
2023-04-22T18:22:19.371Z,33.90
2023-04-22T18:24:46.112Z,33.97
2023-04-22T18:27:12.856Z,34.00
2023-04-22T18:29:39.731Z,34.26
2023-04-22T18:32:06.590Z,34.29
2023-04-22T18:34:33.381Z,34.63
2023-04-22T18:37:00.383Z,34.72
2023-04-22T18:39:27.137Z,35.12
2023-04-22T18:41:53.937Z,35.34
2023-04-22T18:44:20.923Z,35.28
2023-04-22T18:46:47.619Z,35.05
2023-04-22T18:49:14.469Z,35.76
2023-04-22T18:51:41.993Z,35.72
2023-04-22T18:54:09.724Z,35.61
2023-04-22T18:56:36.695Z,36.00
2023-04-22T18:59:03.536Z,36.42
2023-04-22T19:01:30.726Z,36.33
2023-04-22T19:03:57.905Z,36.32
2023-04-22T19:06:24.604Z,36.50
2023-04-22T19:08:56.011Z,36.87
2023-04-22T19:11:24.866Z,36.96
2023-04-22T19:13:53.805Z,36.81
2023-04-22T19:16:21.046Z,36.92
2023-04-22T19:18:48.771Z,37.17
2023-04-22T19:21:18.080Z,37.31
2023-04-22T19:23:44.874Z,37.87
2023-04-22T19:26:11.617Z,37.75
2023-04-22T19:28:38.380Z,37.79
2023-04-22T19:31:05.519Z,38.12
2023-04-22T19:33:32.394Z,38.26
2023-04-22T19:35:59.300Z,38.63
2023-04-22T19:38:26.407Z,39.12
2023-04-22T19:40:54.593Z,39.65
2023-04-22T19:43:22.390Z,40.03
2023-04-22T19:45:49.399Z,40.29
2023-04-22T19:48:17.223Z,40.98
2023-04-22T19:50:44.755Z,41.39
2023-04-22T19:53:12.326Z,41.24
2023-04-22T19:55:39.850Z,42.05
2023-04-22T19:58:07.924Z,41.81
2023-04-22T20:00:35.635Z,42.31
2023-04-22T20:03:03.491Z,42.71
2023-04-22T20:05:30.669Z,43.00
2023-04-22T20:07:58.761Z,43.55
2023-04-22T20:10:26.608Z,43.65
2023-04-22T20:12:53.887Z,43.82
2023-04-22T20:15:21.323Z,43.71
2023-04-22T20:17:49.186Z,43.91
2023-04-22T20:20:17.658Z,44.59
2023-04-22T20:22:46.202Z,44.76
2023-04-22T20:25:17.164Z,44.78
2023-04-22T20:27:44.534Z,45.28
2023-04-22T20:30:13.985Z,45.55
2023-04-22T20:32:42.036Z,45.82
2023-04-22T20:35:12.472Z,46.36
2023-04-22T20:37:40.276Z,46.54
2023-04-22T20:40:11.310Z,46.85
2023-04-22T20:42:38.239Z,47.07
2023-04-22T20:45:06.416Z,47.49
2023-04-22T20:47:36.180Z,47.70
2023-04-22T20:50:03.946Z,47.23
2023-04-22T20:52:30.718Z,47.66
2023-04-22T20:54:59.801Z,47.94
2023-04-22T20:57:26.830Z,47.71
2023-04-22T20:59:55.533Z,47.74
2023-04-22T21:02:24.664Z,47.96
2023-04-22T21:04:52.455Z,47.71
2023-04-22T21:07:21.471Z,48.20
2023-04-22T21:09:48.318Z,48.08
2023-04-22T21:12:17.383Z,48.12
2023-04-22T21:14:46.997Z,49.01
2023-04-22T21:17:27.434Z,48.40
2023-04-22T21:19:57.606Z,49.00
2023-04-22T21:22:25.765Z,49.26
2023-04-22T21:24:56.142Z,49.35
2023-04-22T21:27:23.286Z,49.34
2023-04-22T21:29:50.788Z,49.37
2023-04-22T21:32:20.154Z,49.45
2023-04-22T21:34:47.113Z,49.06
2023-04-22T21:37:14.147Z,49.20
2023-04-22T21:39:41.449Z,49.14
2023-04-22T21:42:10.919Z,49.23
2023-04-22T21:44:38.145Z,48.77
2023-04-22T21:47:05.969Z,49.72
2023-04-22T21:49:32.784Z,50.21
2023-04-22T21:51:59.701Z,50.19
2023-04-22T21:54:26.683Z,50.09
2023-04-22T21:56:53.454Z,50.39
2023-04-22T21:59:24.876Z,50.18
2023-04-22T22:01:52.133Z,50.54
2023-04-22T22:04:19.917Z,50.33
2023-04-22T22:06:47.161Z,50.52
2023-04-22T22:09:14.220Z,50.85
2023-04-22T22:11:42.279Z,50.92
2023-04-22T22:14:09.362Z,51.43
2023-04-22T22:16:38.542Z,50.98
2023-04-22T22:19:06.452Z,51.16
2023-04-22T22:21:33.409Z,51.49
2023-04-22T22:24:00.788Z,51.42
2023-04-22T22:26:28.146Z,52.04
2023-04-22T22:28:55.740Z,52.57
2023-04-22T22:31:23.386Z,53.23
2023-04-22T22:33:50.798Z,53.11
2023-04-22T22:36:17.985Z,53.54
2023-04-22T22:38:45.057Z,53.74
2023-04-22T22:41:14.252Z,54.28
2023-04-22T22:43:41.402Z,54.74
2023-04-22T22:46:08.554Z,55.13
2023-04-22T22:48:35.555Z,55.26
2023-04-22T22:51:02.523Z,55.89
2023-04-22T22:53:29.466Z,56.41
2023-04-22T22:55:58.996Z,56.71
2023-04-22T22:58:27.002Z,57.35
2023-04-22T23:00:54.179Z,57.01
2023-04-22T23:03:21.385Z,57.10
2023-04-22T23:05:48.659Z,57.22
2023-04-22T23:08:16.585Z,57.16
2023-04-22T23:10:43.492Z,57.10
2023-04-22T23:13:10.349Z,57.51
2023-04-22T23:15:37.870Z,57.14
2023-04-22T23:18:06.485Z,56.92
2023-04-22T23:20:34.240Z,57.24
2023-04-22T23:23:03.881Z,57.30
2023-04-22T23:25:31.068Z,57.10
2023-04-22T23:27:58.378Z,57.00
2023-04-22T23:30:25.612Z,56.99
2023-04-22T23:32:57.480Z,57.11
2023-04-22T23:35:27.602Z,57.02
2023-04-22T23:37:54.782Z,56.66
2023-04-22T23:40:21.669Z,57.01
2023-04-22T23:42:48.546Z,57.15
2023-04-22T23:45:18.207Z,58.13
2023-04-22T23:47:44.957Z,58.04
2023-04-22T23:50:14.134Z,57.91
2023-04-22T23:52:44.888Z,58.95
2023-04-22T23:55:13.941Z,59.38
2023-04-22T23:57:41.134Z,60.02
